sensor_id;sensor_type;location;lat;lon;timestamp;temperature;humidity
11656;DHT22;5884;43.618;1.438;2022-07-25T04:46:39;23.10;99.90
11656;DHT22;5884;43.618;1.438;2022-07-25T04:49:07;23.10;99.90
11656;DHT22;5884;43.618;1.438;2022-07-25T04:51:34;23.10;99.90
11656;DHT22;5884;43.618;1.438;2022-07-25T04:54:01;23.10;99.90
11656;DHT22;5884;43.618;1.438;2022-07-25T04:56:29;23.00;99.90
11656;DHT22;5884;43.618;1.438;2022-07-25T04:58:56;23.10;99.90
11656;DHT22;5884;43.618;1.438;2022-07-25T05:01:23;23.00;99.90
11656;DHT22;5884;43.618;1.438;2022-07-25T05:03:52;23.00;99.90
11656;DHT22;5884;43.618;1.438;2022-07-25T05:06:19;23.00;99.90
11656;DHT22;5884;43.618;1.438;2022-07-25T05:08:46;22.80;99.90
11656;DHT22;5884;43.618;1.438;2022-07-25T05:11:13;22.60;99.90
11656;DHT22;5884;43.618;1.438;2022-07-25T05:13:41;22.40;99.90
11656;DHT22;5884;43.618;1.438;2022-07-25T05:16:08;22.10;99.90
11656;DHT22;5884;43.618;1.438;2022-07-25T05:18:35;22.20;99.90
11656;DHT22;5884;43.618;1.438;2022-07-25T05:21:03;22.20;99.90
11656;DHT22;5884;43.618;1.438;2022-07-25T05:23:31;22.00;99.90
11656;DHT22;5884;43.618;1.438;2022-07-25T05:25:58;21.90;99.90
11656;DHT22;5884;43.618;1.438;2022-07-25T05:28:25;21.90;99.90
11656;DHT22;5884;43.618;1.438;2022-07-25T05:30:52;21.80;99.90
11656;DHT22;5884;43.618;1.438;2022-07-25T05:33:20;21.80;99.90
11656;DHT22;5884;43.618;1.438;2022-07-25T05:35:47;21.80;99.90
11656;DHT22;5884;43.618;1.438;2022-07-25T05:38:15;21.80;99.90
11656;DHT22;5884;43.618;1.438;2022-07-25T05:40:43;21.80;99.90
11656;DHT22;5884;43.618;1.438;2022-07-25T05:43:10;21.70;99.90
11656;DHT22;5884;43.618;1.438;2022-07-25T05:45:37;21.70;99.90
11656;DHT22;5884;43.618;1.438;2022-07-25T05:48:05;21.60;99.90
11656;DHT22;5884;43.618;1.438;2022-07-25T05:50:32;21.60;99.90
11656;DHT22;5884;43.618;1.438;2022-07-25T05:53:02;21.70;99.90
11656;DHT22;5884;43.618;1.438;2022-07-25T05:55:31;21.70;99.90
11656;DHT22;5884;43.618;1.438;2022-07-25T05:57:58;21.80;99.90
11656;DHT22;5884;43.618;1.438;2022-07-25T06:00:25;21.70;99.90
11656;DHT22;5884;43.618;1.438;2022-07-25T06:02:56;21.80;99.90
11656;DHT22;5884;43.618;1.438;2022-07-25T06:05:24;21.90;99.90
11656;DHT22;5884;43.618;1.438;2022-07-25T06:07:51;21.90;99.90
11656;DHT22;5884;43.618;1.438;2022-07-25T06:10:18;21.90;99.90
11656;DHT22;5884;43.618;1.438;2022-07-25T06:12:47;21.80;99.90
11656;DHT22;5884;43.618;1.438;2022-07-25T06:15:14;21.90;99.90
11656;DHT22;5884;43.618;1.438;2022-07-25T06:17:42;21.90;99.90
11656;DHT22;5884;43.618;1.438;2022-07-25T06:20:09;22.00;99.90
11656;DHT22;5884;43.618;1.438;2022-07-25T06:22:38;22.20;99.90
11656;DHT22;5884;43.618;1.438;2022-07-25T06:25:06;22.10;99.90
11656;DHT22;5884;43.618;1.438;2022-07-25T06:27:34;22.30;99.90
11656;DHT22;5884;43.618;1.438;2022-07-25T06:30:05;22.30;99.90
11656;DHT22;5884;43.618;1.438;2022-07-25T06:32:33;22.30;99.90
11656;DHT22;5884;43.618;1.438;2022-07-25T06:35:01;22.30;99.90
11656;DHT22;5884;43.618;1.438;2022-07-25T06:37:28;22.40;99.90
11656;DHT22;5884;43.618;1.438;2022-07-25T06:39:55;22.40;99.90
11656;DHT22;5884;43.618;1.438;2022-07-25T06:42:22;22.50;99.90
11656;DHT22;5884;43.618;1.438;2022-07-25T06:44:49;22.50;99.90
11656;DHT22;5884;43.618;1.438;2022-07-25T06:47:18;22.40;99.90
11656;DHT22;5884;43.618;1.438;2022-07-25T06:49:45;22.50;99.90
11656;DHT22;5884;43.618;1.438;2022-07-25T06:52:12;22.60;99.90
11656;DHT22;5884;43.618;1.438;2022-07-25T06:54:40;22.70;99.90
11656;DHT22;5884;43.618;1.438;2022-07-25T06:57:07;22.90;99.90
11656;DHT22;5884;43.618;1.438;2022-07-25T06:59:34;23.10;99.90
11656;DHT22;5884;43.618;1.438;2022-07-25T07:02:01;23.20;99.90
11656;DHT22;5884;43.618;1.438;2022-07-25T07:04:30;23.30;99.90
11656;DHT22;5884;43.618;1.438;2022-07-25T07:06:57;23.20;99.90
11656;DHT22;5884;43.618;1.438;2022-07-25T07:09:24;23.20;99.90
11656;DHT22;5884;43.618;1.438;2022-07-25T07:11:52;23.20;99.90
11656;DHT22;5884;43.618;1.438;2022-07-25T07:14:19;23.10;99.90
11656;DHT22;5884;43.618;1.438;2022-07-25T07:16:46;23.10;99.90
11656;DHT22;5884;43.618;1.438;2022-07-25T07:19:13;22.90;99.90
11656;DHT22;5884;43.618;1.438;2022-07-25T07:21:42;22.80;99.90
11656;DHT22;5884;43.618;1.438;2022-07-25T07:24:10;22.70;99.90
11656;DHT22;5884;43.618;1.438;2022-07-25T07:26:37;22.70;99.90
11656;DHT22;5884;43.618;1.438;2022-07-25T07:29:04;22.70;99.90
11656;DHT22;5884;43.618;1.438;2022-07-25T07:31:32;22.70;99.90
11656;DHT22;5884;43.618;1.438;2022-07-25T07:33:59;22.80;99.90
11656;DHT22;5884;43.618;1.438;2022-07-25T07:36:26;22.90;99.90
11656;DHT22;5884;43.618;1.438;2022-07-25T07:38:55;23.10;99.90
11656;DHT22;5884;43.618;1.438;2022-07-25T07:41:22;23.40;99.90
11656;DHT22;5884;43.618;1.438;2022-07-25T07:43:49;23.50;99.90
11656;DHT22;5884;43.618;1.438;2022-07-25T07:46:16;23.60;99.90
11656;DHT22;5884;43.618;1.438;2022-07-25T07:48:43;23.60;99.90
11656;DHT22;5884;43.618;1.438;2022-07-25T07:51:11;23.80;99.90
11656;DHT22;5884;43.618;1.438;2022-07-25T07:53:38;23.80;99.90
11656;DHT22;5884;43.618;1.438;2022-07-25T07:56:24;23.80;99.90
11656;DHT22;5884;43.618;1.438;2022-07-25T07:58:51;23.80;99.90
11656;DHT22;5884;43.618;1.438;2022-07-25T08:01:19;23.80;99.90
11656;DHT22;5884;43.618;1.438;2022-07-25T08:03:46;23.90;99.90
11656;DHT22;5884;43.618;1.438;2022-07-25T08:06:13;24.10;99.90
11656;DHT22;5884;43.618;1.438;2022-07-25T08:08:40;24.20;99.90
11656;DHT22;5884;43.618;1.438;2022-07-25T08:11:08;24.40;99.90
11656;DHT22;5884;43.618;1.438;2022-07-25T08:13:36;24.50;99.90
11656;DHT22;5884;43.618;1.438;2022-07-25T08:16:04;24.70;99.90
11656;DHT22;5884;43.618;1.438;2022-07-25T08:18:32;24.60;99.90
11656;DHT22;5884;43.618;1.438;2022-07-25T08:21:00;24.50;99.90
11656;DHT22;5884;43.618;1.438;2022-07-25T08:23:30;24.50;99.90
11656;DHT22;5884;43.618;1.438;2022-07-25T08:25:59;24.70;99.90
11656;DHT22;5884;43.618;1.438;2022-07-25T08:28:28;24.60;99.90
11656;DHT22;5884;43.618;1.438;2022-07-25T08:30:57;24.70;99.90
11656;DHT22;5884;43.618;1.438;2022-07-25T08:33:24;24.80;99.90
11656;DHT22;5884;43.618;1.438;2022-07-25T08:35:53;24.90;99.90
11656;DHT22;5884;43.618;1.438;2022-07-25T08:38:22;24.60;99.90
11656;DHT22;5884;43.618;1.438;2022-07-25T08:40:50;24.60;99.90
11656;DHT22;5884;43.618;1.438;2022-07-25T08:43:18;24.40;99.90
11656;DHT22;5884;43.618;1.438;2022-07-25T08:45:47;24.50;99.90
11656;DHT22;5884;43.618;1.438;2022-07-25T08:48:18;24.50;99.90
11656;DHT22;5884;43.618;1.438;2022-07-25T08:50:47;24.60;99.90
11656;DHT22;5884;43.618;1.438;2022-07-25T08:53:16;24.60;99.90
11656;DHT22;5884;43.618;1.438;2022-07-25T08:55:45;24.50;99.90
11656;DHT22;5884;43.618;1.438;2022-07-25T08:58:14;24.50;99.90
11656;DHT22;5884;43.618;1.438;2022-07-25T09:00:42;24.80;99.90
11656;DHT22;5884;43.618;1.438;2022-07-25T09:03:10;25.20;99.90
11656;DHT22;5884;43.618;1.438;2022-07-25T09:05:39;25.20;99.90
11656;DHT22;5884;43.618;1.438;2022-07-25T09:08:08;25.10;99.90
11656;DHT22;5884;43.618;1.438;2022-07-25T09:10:37;25.50;99.90
11656;DHT22;5884;43.618;1.438;2022-07-25T09:13:07;25.10;99.90
11656;DHT22;5884;43.618;1.438;2022-07-25T09:15:40;25.10;99.90
11656;DHT22;5884;43.618;1.438;2022-07-25T09:18:11;25.40;99.90
11656;DHT22;5884;43.618;1.438;2022-07-25T09:20:43;25.30;99.90
11656;DHT22;5884;43.618;1.438;2022-07-25T09:23:12;25.60;99.90
11656;DHT22;5884;43.618;1.438;2022-07-25T09:25:42;25.10;99.90
11656;DHT22;5884;43.618;1.438;2022-07-25T09:28:14;25.20;99.90
11656;DHT22;5884;43.618;1.438;2022-07-25T09:30:52;25.20;99.90
11656;DHT22;5884;43.618;1.438;2022-07-25T09:33:21;25.20;99.90
11656;DHT22;5884;43.618;1.438;2022-07-25T09:35:51;24.90;99.90
11656;DHT22;5884;43.618;1.438;2022-07-25T09:38:19;24.70;99.90
11656;DHT22;5884;43.618;1.438;2022-07-25T09:40:54;24.70;99.90
11656;DHT22;5884;43.618;1.438;2022-07-25T09:43:23;24.80;99.90
11656;DHT22;5884;43.618;1.438;2022-07-25T09:46:01;24.80;99.90
11656;DHT22;5884;43.618;1.438;2022-07-25T09:48:29;24.90;99.90
11656;DHT22;5884;43.618;1.438;2022-07-25T09:50:58;25.10;99.90
11656;DHT22;5884;43.618;1.438;2022-07-25T09:53:25;25.10;99.90
11656;DHT22;5884;43.618;1.438;2022-07-25T09:55:53;25.20;99.90
11656;DHT22;5884;43.618;1.438;2022-07-25T09:58:21;25.50;99.90
11656;DHT22;5884;43.618;1.438;2022-07-25T10:00:49;25.90;99.90
11656;DHT22;5884;43.618;1.438;2022-07-25T10:03:25;26.30;99.90
11656;DHT22;5884;43.618;1.438;2022-07-25T10:06:10;26.50;99.90
11656;DHT22;5884;43.618;1.438;2022-07-25T10:08:45;26.00;99.90
11656;DHT22;5884;43.618;1.438;2022-07-25T10:11:21;26.20;99.90
11656;DHT22;5884;43.618;1.438;2022-07-25T10:13:51;26.20;99.90
11656;DHT22;5884;43.618;1.438;2022-07-25T10:16:20;26.10;99.90
11656;DHT22;5884;43.618;1.438;2022-07-25T10:18:50;26.20;99.90
11656;DHT22;5884;43.618;1.438;2022-07-25T10:21:21;26.10;99.90
11656;DHT22;5884;43.618;1.438;2022-07-25T10:23:58;26.10;99.90
11656;DHT22;5884;43.618;1.438;2022-07-25T10:26:28;26.10;99.90
11656;DHT22;5884;43.618;1.438;2022-07-25T10:28:57;26.30;99.90
11656;DHT22;5884;43.618;1.438;2022-07-25T10:31:32;25.90;99.90
11656;DHT22;5884;43.618;1.438;2022-07-25T10:34:02;25.90;99.90
11656;DHT22;5884;43.618;1.438;2022-07-25T10:36:42;25.80;99.90
11656;DHT22;5884;43.618;1.438;2022-07-25T10:39:12;25.60;99.90
11656;DHT22;5884;43.618;1.438;2022-07-25T10:41:42;25.40;99.90
11656;DHT22;5884;43.618;1.438;2022-07-25T10:44:15;25.10;99.90
11656;DHT22;5884;43.618;1.438;2022-07-25T10:46:43;25.10;99.90
11656;DHT22;5884;43.618;1.438;2022-07-25T10:49:17;25.00;99.90
11656;DHT22;5884;43.618;1.438;2022-07-25T10:51:55;25.10;99.90
11656;DHT22;5884;43.618;1.438;2022-07-25T10:54:23;25.10;99.90
11656;DHT22;5884;43.618;1.438;2022-07-25T10:56:52;25.30;99.90
11656;DHT22;5884;43.618;1.438;2022-07-25T10:59:29;25.50;99.90
11656;DHT22;5884;43.618;1.438;2022-07-25T11:01:58;25.80;99.90
11656;DHT22;5884;43.618;1.438;2022-07-25T11:04:26;26.00;99.90
11656;DHT22;5884;43.618;1.438;2022-07-25T11:06:55;26.00;99.90
11656;DHT22;5884;43.618;1.438;2022-07-25T11:09:24;26.20;99.90
11656;DHT22;5884;43.618;1.438;2022-07-25T11:11:55;26.10;99.90
11656;DHT22;5884;43.618;1.438;2022-07-25T11:14:24;25.90;99.90
11656;DHT22;5884;43.618;1.438;2022-07-25T11:16:55;26.00;99.90
11656;DHT22;5884;43.618;1.438;2022-07-25T11:19:24;25.90;99.90
11656;DHT22;5884;43.618;1.438;2022-07-25T11:21:56;26.20;99.90
11656;DHT22;5884;43.618;1.438;2022-07-25T11:24:33;26.30;99.90
11656;DHT22;5884;43.618;1.438;2022-07-25T11:27:01;27.10;99.90
11656;DHT22;5884;43.618;1.438;2022-07-25T11:29:29;27.40;99.90
11656;DHT22;5884;43.618;1.438;2022-07-25T11:31:58;27.50;99.90
11656;DHT22;5884;43.618;1.438;2022-07-25T11:34:27;27.10;99.90
11656;DHT22;5884;43.618;1.438;2022-07-25T11:36:59;26.90;99.90
11656;DHT22;5884;43.618;1.438;2022-07-25T11:39:30;26.80;99.90
11656;DHT22;5884;43.618;1.438;2022-07-25T11:42:04;26.60;99.90
11656;DHT22;5884;43.618;1.438;2022-07-25T11:44:36;26.90;99.90
11656;DHT22;5884;43.618;1.438;2022-07-25T11:47:06;27.30;99.90
11656;DHT22;5884;43.618;1.438;2022-07-25T11:49:53;27.70;99.90
11656;DHT22;5884;43.618;1.438;2022-07-25T11:52:25;27.60;99.90
11656;DHT22;5884;43.618;1.438;2022-07-25T11:54:56;28.00;99.90
11656;DHT22;5884;43.618;1.438;2022-07-25T11:57:26;28.40;99.90
11656;DHT22;5884;43.618;1.438;2022-07-25T11:59:55;28.40;99.90
11656;DHT22;5884;43.618;1.438;2022-07-25T12:02:26;28.00;99.90
11656;DHT22;5884;43.618;1.438;2022-07-25T12:04:56;27.80;99.90
11656;DHT22;5884;43.618;1.438;2022-07-25T12:07:40;28.20;99.90
11656;DHT22;5884;43.618;1.438;2022-07-25T12:10:14;28.70;99.90
11656;DHT22;5884;43.618;1.438;2022-07-25T12:12:47;28.60;99.90
11656;DHT22;5884;43.618;1.438;2022-07-25T12:15:18;28.10;99.90
11656;DHT22;5884;43.618;1.438;2022-07-25T12:17:46;28.10;99.90
11656;DHT22;5884;43.618;1.438;2022-07-25T12:20:15;27.90;99.90
11656;DHT22;5884;43.618;1.438;2022-07-25T12:22:45;27.60;99.90
11656;DHT22;5884;43.618;1.438;2022-07-25T12:25:13;27.70;99.90
11656;DHT22;5884;43.618;1.438;2022-07-25T12:27:41;27.70;99.90
11656;DHT22;5884;43.618;1.438;2022-07-25T12:30:10;27.60;99.90
11656;DHT22;5884;43.618;1.438;2022-07-25T12:32:38;27.30;99.90
11656;DHT22;5884;43.618;1.438;2022-07-25T12:35:07;27.40;99.90
11656;DHT22;5884;43.618;1.438;2022-07-25T12:37:35;27.60;99.90
11656;DHT22;5884;43.618;1.438;2022-07-25T12:40:05;27.70;99.90
11656;DHT22;5884;43.618;1.438;2022-07-25T12:42:33;27.70;99.90
11656;DHT22;5884;43.618;1.438;2022-07-25T12:45:01;27.80;99.90
11656;DHT22;5884;43.618;1.438;2022-07-25T12:47:28;27.70;99.90
11656;DHT22;5884;43.618;1.438;2022-07-25T12:49:56;27.60;99.90
11656;DHT22;5884;43.618;1.438;2022-07-25T12:52:23;27.40;99.90
11656;DHT22;5884;43.618;1.438;2022-07-25T12:54:50;27.40;99.90
11656;DHT22;5884;43.618;1.438;2022-07-25T12:57:19;27.30;99.90
11656;DHT22;5884;43.618;1.438;2022-07-25T12:59:46;27.40;99.90
11656;DHT22;5884;43.618;1.438;2022-07-25T13:02:14;27.30;99.90
11656;DHT22;5884;43.618;1.438;2022-07-25T13:04:41;27.20;99.90
11656;DHT22;5884;43.618;1.438;2022-07-25T13:07:08;27.40;99.90
11656;DHT22;5884;43.618;1.438;2022-07-25T13:09:35;27.60;99.90
11656;DHT22;5884;43.618;1.438;2022-07-25T13:12:03;27.50;99.90
11656;DHT22;5884;43.618;1.438;2022-07-25T13:14:32;27.50;99.90
11656;DHT22;5884;43.618;1.438;2022-07-25T13:16:59;27.20;99.90
11656;DHT22;5884;43.618;1.438;2022-07-25T13:19:27;27.10;99.90
11656;DHT22;5884;43.618;1.438;2022-07-25T13:21:54;27.10;99.90
11656;DHT22;5884;43.618;1.438;2022-07-25T13:24:21;27.20;99.90
11656;DHT22;5884;43.618;1.438;2022-07-25T13:26:49;27.40;99.90
11656;DHT22;5884;43.618;1.438;2022-07-25T13:29:16;27.30;99.90
11656;DHT22;5884;43.618;1.438;2022-07-25T13:31:44;27.30;99.90
11656;DHT22;5884;43.618;1.438;2022-07-25T13:34:12;27.40;99.90
11656;DHT22;5884;43.618;1.438;2022-07-25T13:36:39;27.50;99.90
11656;DHT22;5884;43.618;1.438;2022-07-25T13:39:06;27.50;99.90
11656;DHT22;5884;43.618;1.438;2022-07-25T13:41:33;27.60;99.90
11656;DHT22;5884;43.618;1.438;2022-07-25T13:44:00;27.90;99.90
11656;DHT22;5884;43.618;1.438;2022-07-25T13:46:28;27.80;99.90
11656;DHT22;5884;43.618;1.438;2022-07-25T13:48:56;27.80;99.90
11656;DHT22;5884;43.618;1.438;2022-07-25T13:51:24;27.70;99.90
11656;DHT22;5884;43.618;1.438;2022-07-25T13:53:51;27.60;99.90
11656;DHT22;5884;43.618;1.438;2022-07-25T13:56:18;27.50;99.90
11656;DHT22;5884;43.618;1.438;2022-07-25T13:58:45;27.60;99.90
11656;DHT22;5884;43.618;1.438;2022-07-25T14:01:13;27.80;99.90
11656;DHT22;5884;43.618;1.438;2022-07-25T14:03:40;28.00;99.90
11656;DHT22;5884;43.618;1.438;2022-07-25T14:06:09;28.30;99.90
11656;DHT22;5884;43.618;1.438;2022-07-25T14:08:37;28.50;99.90
11656;DHT22;5884;43.618;1.438;2022-07-25T14:11:05;28.40;99.90
11656;DHT22;5884;43.618;1.438;2022-07-25T14:13:33;28.50;99.90
11656;DHT22;5884;43.618;1.438;2022-07-25T14:16:00;28.50;99.90
11656;DHT22;5884;43.618;1.438;2022-07-25T14:18:27;28.90;99.90
11656;DHT22;5884;43.618;1.438;2022-07-25T14:20:56;29.00;99.90
11656;DHT22;5884;43.618;1.438;2022-07-25T14:23:25;29.00;99.90
11656;DHT22;5884;43.618;1.438;2022-07-25T14:25:52;28.70;99.90
11656;DHT22;5884;43.618;1.438;2022-07-25T14:28:20;28.40;99.90
11656;DHT22;5884;43.618;1.438;2022-07-25T14:30:47;28.30;99.90
11656;DHT22;5884;43.618;1.438;2022-07-25T14:33:14;28.20;99.90
11656;DHT22;5884;43.618;1.438;2022-07-25T14:35:41;28.20;99.90
11656;DHT22;5884;43.618;1.438;2022-07-25T14:38:08;28.30;99.90
11656;DHT22;5884;43.618;1.438;2022-07-25T14:40:37;28.30;99.90
11656;DHT22;5884;43.618;1.438;2022-07-25T14:43:04;28.30;99.90
11656;DHT22;5884;43.618;1.438;2022-07-25T14:45:31;28.50;99.90
11656;DHT22;5884;43.618;1.438;2022-07-25T14:47:58;28.70;99.90
11656;DHT22;5884;43.618;1.438;2022-07-25T14:50:26;28.70;99.90
11656;DHT22;5884;43.618;1.438;2022-07-25T14:52:53;28.60;99.90
11656;DHT22;5884;43.618;1.438;2022-07-25T14:55:20;28.50;99.90
11656;DHT22;5884;43.618;1.438;2022-07-25T14:57:50;28.60;99.90
11656;DHT22;5884;43.618;1.438;2022-07-25T15:00:18;28.50;99.90
11656;DHT22;5884;43.618;1.438;2022-07-25T15:02:45;28.80;99.90
11656;DHT22;5884;43.618;1.438;2022-07-25T15:05:12;28.90;99.90
11656;DHT22;5884;43.618;1.438;2022-07-25T15:07:39;29.00;99.90
11656;DHT22;5884;43.618;1.438;2022-07-25T15:10:07;29.10;99.90
11656;DHT22;5884;43.618;1.438;2022-07-25T15:12:35;29.10;99.90
11656;DHT22;5884;43.618;1.438;2022-07-25T15:15:05;28.90;99.90
11656;DHT22;5884;43.618;1.438;2022-07-25T15:17:32;28.60;99.90
11656;DHT22;5884;43.618;1.438;2022-07-25T15:20:00;28.50;99.90
11656;DHT22;5884;43.618;1.438;2022-07-25T15:22:27;28.60;99.90
11656;DHT22;5884;43.618;1.438;2022-07-25T15:24:54;28.70;99.90
11656;DHT22;5884;43.618;1.438;2022-07-25T15:27:22;28.70;99.90
11656;DHT22;5884;43.618;1.438;2022-07-25T15:29:49;28.80;99.90
11656;DHT22;5884;43.618;1.438;2022-07-25T15:32:17;29.00;99.90
11656;DHT22;5884;43.618;1.438;2022-07-25T15:34:45;29.20;99.90
11656;DHT22;5884;43.618;1.438;2022-07-25T15:37:12;29.00;99.90
11656;DHT22;5884;43.618;1.438;2022-07-25T15:39:39;29.00;99.90
11656;DHT22;5884;43.618;1.438;2022-07-25T15:42:06;29.30;99.90
11656;DHT22;5884;43.618;1.438;2022-07-25T15:44:34;29.30;99.90
11656;DHT22;5884;43.618;1.438;2022-07-25T15:47:01;29.00;99.90
11656;DHT22;5884;43.618;1.438;2022-07-25T15:49:29;28.80;99.90
11656;DHT22;5884;43.618;1.438;2022-07-25T15:51:56;28.90;99.90
11656;DHT22;5884;43.618;1.438;2022-07-25T15:54:24;28.90;99.90
11656;DHT22;5884;43.618;1.438;2022-07-25T15:56:51;28.80;99.90
11656;DHT22;5884;43.618;1.438;2022-07-25T15:59:18;28.60;99.90
11656;DHT22;5884;43.618;1.438;2022-07-25T16:01:46;28.80;99.90
11656;DHT22;5884;43.618;1.438;2022-07-25T16:04:13;28.60;99.90
11656;DHT22;5884;43.618;1.438;2022-07-25T16:06:41;28.50;99.90
11656;DHT22;5884;43.618;1.438;2022-07-25T16:09:09;28.40;99.90
11656;DHT22;5884;43.618;1.438;2022-07-25T16:11:36;28.40;99.90
11656;DHT22;5884;43.618;1.438;2022-07-25T16:14:04;28.50;99.90
11656;DHT22;5884;43.618;1.438;2022-07-25T16:16:31;28.60;99.90
11656;DHT22;5884;43.618;1.438;2022-07-25T16:18:58;28.80;99.90
11656;DHT22;5884;43.618;1.438;2022-07-25T16:21:25;28.80;99.90
11656;DHT22;5884;43.618;1.438;2022-07-25T16:23:54;28.80;99.90
11656;DHT22;5884;43.618;1.438;2022-07-25T16:26:21;28.70;99.90
11656;DHT22;5884;43.618;1.438;2022-07-25T16:28:49;28.80;99.90
11656;DHT22;5884;43.618;1.438;2022-07-25T16:31:16;28.70;99.90
11656;DHT22;5884;43.618;1.438;2022-07-25T16:33:43;28.60;99.90
11656;DHT22;5884;43.618;1.438;2022-07-25T16:36:10;28.80;99.90
11656;DHT22;5884;43.618;1.438;2022-07-25T16:38:38;28.80;99.90
11656;DHT22;5884;43.618;1.438;2022-07-25T16:41:06;28.70;99.90
11656;DHT22;5884;43.618;1.438;2022-07-25T16:43:34;28.60;99.90
11656;DHT22;5884;43.618;1.438;2022-07-25T16:46:01;28.60;99.90
11656;DHT22;5884;43.618;1.438;2022-07-25T16:48:28;28.60;99.90
11656;DHT22;5884;43.618;1.438;2022-07-25T16:50:56;28.50;99.90
11656;DHT22;5884;43.618;1.438;2022-07-25T16:53:23;28.40;99.90
11656;DHT22;5884;43.618;1.438;2022-07-25T16:55:50;28.30;99.90
11656;DHT22;5884;43.618;1.438;2022-07-25T16:58:19;28.30;99.90
11656;DHT22;5884;43.618;1.438;2022-07-25T17:00:47;28.30;99.90
11656;DHT22;5884;43.618;1.438;2022-07-25T17:03:14;28.40;99.90
11656;DHT22;5884;43.618;1.438;2022-07-25T17:05:41;28.40;99.90
11656;DHT22;5884;43.618;1.438;2022-07-25T17:08:08;28.40;99.90
11656;DHT22;5884;43.618;1.438;2022-07-25T17:10:36;28.40;99.90
11656;DHT22;5884;43.618;1.438;2022-07-25T17:13:03;28.30;99.90
11656;DHT22;5884;43.618;1.438;2022-07-25T17:15:31;28.20;99.90
11656;DHT22;5884;43.618;1.438;2022-07-25T17:17:59;28.20;99.90
11656;DHT22;5884;43.618;1.438;2022-07-25T17:20:26;28.10;99.90
11656;DHT22;5884;43.618;1.438;2022-07-25T17:22:53;28.00;99.90
11656;DHT22;5884;43.618;1.438;2022-07-25T17:25:20;28.00;99.90
11656;DHT22;5884;43.618;1.438;2022-07-25T17:27:48;27.90;99.90
11656;DHT22;5884;43.618;1.438;2022-07-25T17:30:15;28.00;99.90
11656;DHT22;5884;43.618;1.438;2022-07-25T17:32:44;27.90;99.90
11656;DHT22;5884;43.618;1.438;2022-07-25T17:35:11;27.90;99.90
11656;DHT22;5884;43.618;1.438;2022-07-25T17:37:39;27.90;99.90
11656;DHT22;5884;43.618;1.438;2022-07-25T17:40:08;28.00;99.90
11656;DHT22;5884;43.618;1.438;2022-07-25T17:42:36;28.00;99.90
11656;DHT22;5884;43.618;1.438;2022-07-25T17:45:05;27.80;99.90
11656;DHT22;5884;43.618;1.438;2022-07-25T17:47:33;27.80;99.90
11656;DHT22;5884;43.618;1.438;2022-07-25T17:50:02;27.70;99.90
11656;DHT22;5884;43.618;1.438;2022-07-25T17:52:30;27.60;99.90
11656;DHT22;5884;43.618;1.438;2022-07-25T17:54:57;27.60;99.90
11656;DHT22;5884;43.618;1.438;2022-07-25T17:57:24;27.50;99.90
11656;DHT22;5884;43.618;1.438;2022-07-25T17:59:52;27.50;99.90
11656;DHT22;5884;43.618;1.438;2022-07-25T18:02:19;27.50;99.90
11656;DHT22;5884;43.618;1.438;2022-07-25T18:04:46;27.60;99.90
11656;DHT22;5884;43.618;1.438;2022-07-25T18:07:15;27.60;99.90
11656;DHT22;5884;43.618;1.438;2022-07-25T18:09:42;27.60;99.90
11656;DHT22;5884;43.618;1.438;2022-07-25T18:12:10;27.50;99.90
11656;DHT22;5884;43.618;1.438;2022-07-25T18:14:37;27.50;99.90
11656;DHT22;5884;43.618;1.438;2022-07-25T18:17:04;27.40;99.90
11656;DHT22;5884;43.618;1.438;2022-07-25T18:19:31;27.40;99.90
11656;DHT22;5884;43.618;1.438;2022-07-25T18:21:59;27.40;99.90
11656;DHT22;5884;43.618;1.438;2022-07-25T18:24:27;27.30;99.90
11656;DHT22;5884;43.618;1.438;2022-07-25T18:26:55;27.30;99.90
11656;DHT22;5884;43.618;1.438;2022-07-25T18:29:22;27.30;99.90
11656;DHT22;5884;43.618;1.438;2022-07-25T18:31:50;27.20;99.90
11656;DHT22;5884;43.618;1.438;2022-07-25T18:34:17;27.20;99.90
11656;DHT22;5884;43.618;1.438;2022-07-25T18:36:44;27.20;99.90
11656;DHT22;5884;43.618;1.438;2022-07-25T18:39:11;27.10;99.90
11656;DHT22;5884;43.618;1.438;2022-07-25T18:41:40;27.10;99.90
11656;DHT22;5884;43.618;1.438;2022-07-25T18:44:07;27.10;99.90
11656;DHT22;5884;43.618;1.438;2022-07-25T18:46:35;27.00;99.90
11656;DHT22;5884;43.618;1.438;2022-07-25T18:49:02;27.10;99.90
11656;DHT22;5884;43.618;1.438;2022-07-25T18:51:30;27.00;99.90
11656;DHT22;5884;43.618;1.438;2022-07-25T18:53:57;26.90;99.90
11656;DHT22;5884;43.618;1.438;2022-07-25T18:56:24;26.80;99.90
11656;DHT22;5884;43.618;1.438;2022-07-25T18:58:53;26.70;99.90
11656;DHT22;5884;43.618;1.438;2022-07-25T19:01:20;26.70;99.90
11656;DHT22;5884;43.618;1.438;2022-07-25T19:03:48;26.60;99.90
11656;DHT22;5884;43.618;1.438;2022-07-25T19:06:15;26.50;99.90
11656;DHT22;5884;43.618;1.438;2022-07-25T19:08:42;26.50;99.90
11656;DHT22;5884;43.618;1.438;2022-07-25T19:11:11;26.50;99.90
11656;DHT22;5884;43.618;1.438;2022-07-25T19:13:38;26.50;99.90
11656;DHT22;5884;43.618;1.438;2022-07-25T19:16:08;26.40;99.90
11656;DHT22;5884;43.618;1.438;2022-07-25T19:18:37;26.40;99.90
11656;DHT22;5884;43.618;1.438;2022-07-25T19:21:04;26.40;99.90
11656;DHT22;5884;43.618;1.438;2022-07-25T19:23:32;26.30;99.90
11656;DHT22;5884;43.618;1.438;2022-07-25T19:26:01;26.30;99.90
11656;DHT22;5884;43.618;1.438;2022-07-25T19:28:28;26.20;99.90
11656;DHT22;5884;43.618;1.438;2022-07-25T19:30:56;26.20;99.90
11656;DHT22;5884;43.618;1.438;2022-07-25T19:33:24;26.10;99.90
11656;DHT22;5884;43.618;1.438;2022-07-25T19:35:52;26.10;99.90
11656;DHT22;5884;43.618;1.438;2022-07-25T19:38:19;25.90;99.90
11656;DHT22;5884;43.618;1.438;2022-07-25T19:40:46;25.90;99.90
11656;DHT22;5884;43.618;1.438;2022-07-25T19:43:14;25.80;99.90
11656;DHT22;5884;43.618;1.438;2022-07-25T19:45:41;25.80;99.90
11656;DHT22;5884;43.618;1.438;2022-07-25T19:48:08;25.70;99.90
11656;DHT22;5884;43.618;1.438;2022-07-25T19:50:38;25.60;99.90
11656;DHT22;5884;43.618;1.438;2022-07-25T19:53:05;25.50;99.90
11656;DHT22;5884;43.618;1.438;2022-07-25T19:55:32;25.40;99.90
11656;DHT22;5884;43.618;1.438;2022-07-25T19:57:59;25.30;99.90
11656;DHT22;5884;43.618;1.438;2022-07-25T20:00:26;25.30;99.90
11656;DHT22;5884;43.618;1.438;2022-07-25T20:02:54;25.20;99.90
11656;DHT22;5884;43.618;1.438;2022-07-25T20:05:21;25.20;99.90
11656;DHT22;5884;43.618;1.438;2022-07-25T20:07:49;25.00;99.90
11656;DHT22;5884;43.618;1.438;2022-07-25T20:10:17;25.00;99.90
11656;DHT22;5884;43.618;1.438;2022-07-25T20:12:44;25.00;99.90
11656;DHT22;5884;43.618;1.438;2022-07-25T20:15:11;25.00;99.90
11656;DHT22;5884;43.618;1.438;2022-07-25T20:17:38;24.90;99.90
11656;DHT22;5884;43.618;1.438;2022-07-25T20:20:07;24.70;99.90
11656;DHT22;5884;43.618;1.438;2022-07-25T20:22:35;24.60;99.90
11656;DHT22;5884;43.618;1.438;2022-07-25T20:25:05;24.50;99.90
11656;DHT22;5884;43.618;1.438;2022-07-25T20:27:34;24.30;99.90
11656;DHT22;5884;43.618;1.438;2022-07-25T20:30:02;24.30;99.90
11656;DHT22;5884;43.618;1.438;2022-07-25T20:32:31;24.30;99.90
11656;DHT22;5884;43.618;1.438;2022-07-25T20:34:58;24.30;99.90
11656;DHT22;5884;43.618;1.438;2022-07-25T20:37:25;24.30;99.90